createdAt,value
2022-12-22T00:01:32.036Z,2.33
2022-12-22T00:04:17.975Z,1.90
2022-12-22T00:07:03.159Z,1.73
2022-12-22T00:09:47.883Z,1.97
2022-12-22T00:12:36.564Z,1.83
2022-12-22T00:15:22.365Z,2.00
2022-12-22T00:18:07.415Z,2.10
2022-12-22T00:20:52.264Z,1.80
2022-12-22T00:23:37.001Z,1.80
2022-12-22T00:26:21.707Z,2.00
2022-12-22T00:29:07.755Z,1.93
2022-12-22T00:31:52.742Z,1.87
2022-12-22T00:34:38.990Z,1.97
2022-12-22T00:37:24.142Z,2.10
2022-12-22T00:40:08.907Z,2.10
2022-12-22T00:42:53.825Z,1.80
2022-12-22T00:45:40.056Z,1.70
2022-12-22T00:48:26.491Z,2.30
2022-12-22T00:51:12.301Z,2.00
2022-12-22T00:53:57.072Z,2.00
2022-12-22T00:56:41.926Z,2.20
2022-12-22T00:59:28.601Z,2.13
2022-12-22T01:02:14.936Z,2.10
2022-12-22T01:05:00.283Z,1.93
2022-12-22T01:07:46.146Z,1.70
2022-12-22T01:10:31.963Z,1.80
2022-12-22T01:13:16.840Z,1.80
2022-12-22T01:16:01.676Z,1.70
2022-12-22T01:18:47.985Z,1.50
2022-12-22T01:21:33.263Z,1.90
2022-12-22T01:24:18.162Z,1.80
2022-12-22T01:27:03.297Z,1.87
2022-12-22T01:29:48.065Z,1.60
2022-12-22T01:32:33.624Z,1.67
2022-12-22T01:35:19.982Z,1.80
2022-12-22T01:38:05.040Z,1.73
2022-12-22T01:40:50.078Z,1.63
2022-12-22T01:43:38.390Z,1.87
2022-12-22T01:46:40.064Z,1.90
2022-12-22T01:49:27.310Z,2.03
2022-12-22T01:52:13.437Z,2.13
2022-12-22T01:54:58.907Z,2.27
2022-12-22T01:57:43.755Z,2.43
2022-12-22T02:00:29.280Z,2.47
2022-12-22T02:03:14.235Z,2.10
2022-12-22T02:06:04.658Z,2.10
2022-12-22T02:08:52.746Z,2.10
2022-12-22T02:11:41.712Z,2.30
2022-12-22T02:14:34.295Z,2.17
2022-12-22T02:17:23.377Z,1.93
2022-12-22T02:20:41.205Z,2.03
2022-12-22T02:23:32.509Z,2.00
2022-12-22T02:26:22.154Z,2.13
2022-12-22T02:29:09.937Z,1.80
2022-12-22T02:31:56.047Z,2.03
2022-12-22T02:34:40.939Z,1.90
2022-12-22T02:37:29.515Z,1.73
2022-12-22T02:40:19.349Z,1.60
2022-12-22T02:43:08.949Z,1.50
2022-12-22T02:45:59.631Z,1.40
2022-12-22T02:48:46.408Z,1.53
2022-12-22T02:51:35.876Z,1.50
2022-12-22T02:54:21.190Z,1.50
2022-12-22T02:57:06.502Z,1.90
2022-12-22T02:59:51.387Z,1.40
2022-12-22T03:02:37.976Z,1.60
2022-12-22T03:05:23.735Z,1.47
2022-12-22T03:08:08.942Z,1.60
2022-12-22T03:10:53.956Z,1.30
2022-12-22T03:13:38.975Z,1.13
2022-12-22T03:16:24.120Z,1.30
2022-12-22T03:19:10.541Z,1.20
2022-12-22T03:21:55.611Z,1.30
2022-12-22T03:24:40.415Z,1.10
2022-12-22T03:27:07.992Z,1.20
2022-12-22T03:29:35.388Z,1.20
2022-12-22T03:32:03.144Z,1.50
2022-12-22T03:34:32.070Z,1.40
2022-12-22T03:36:59.525Z,1.10
2022-12-22T03:39:27.175Z,1.47
2022-12-22T03:42:17.890Z,1.30
2022-12-22T03:45:02.742Z,1.90
2022-12-22T03:47:31.725Z,1.57
2022-12-22T03:50:00.602Z,1.33
2022-12-22T03:52:28.144Z,1.43
2022-12-22T03:54:55.584Z,1.27
2022-12-22T03:57:23.264Z,1.30
2022-12-22T03:59:50.793Z,1.60
2022-12-22T04:02:18.536Z,1.20
2022-12-22T04:04:46.015Z,1.40
2022-12-22T04:07:14.876Z,1.50
2022-12-22T04:10:02.434Z,1.40
2022-12-22T04:12:47.373Z,1.20
2022-12-22T04:15:14.875Z,1.43
2022-12-22T04:17:42.308Z,1.30
2022-12-22T04:20:10.315Z,1.23
2022-12-22T04:22:39.439Z,1.30
2022-12-22T04:25:07.583Z,1.00
2022-12-22T04:27:35.047Z,1.00
2022-12-22T04:30:02.520Z,1.20
2022-12-22T04:32:30.039Z,1.10
2022-12-22T04:34:57.495Z,1.23
2022-12-22T04:37:25.143Z,1.07
2022-12-22T04:39:53.999Z,1.00
2022-12-22T04:42:21.504Z,1.37
2022-12-22T04:44:48.981Z,1.47
2022-12-22T04:47:16.427Z,1.30
2022-12-22T04:49:44.547Z,1.30
2022-12-22T04:52:12.043Z,1.30
2022-12-22T04:54:39.529Z,1.40
2022-12-22T04:57:08.323Z,1.40
2022-12-22T04:59:35.883Z,1.10
2022-12-22T05:02:03.381Z,1.60
2022-12-22T05:04:31.126Z,1.30
2022-12-22T05:06:58.551Z,1.30
2022-12-22T05:09:26.152Z,1.30
2022-12-22T05:11:53.620Z,1.13
2022-12-22T05:14:22.436Z,1.40
2022-12-22T05:16:49.911Z,1.30
2022-12-22T05:19:17.336Z,1.30
2022-12-22T05:21:45.616Z,1.70
2022-12-22T05:24:13.653Z,1.30
2022-12-22T05:26:41.150Z,1.17
2022-12-22T05:29:08.565Z,1.30
2022-12-22T05:31:40.718Z,1.10
2022-12-22T05:34:12.611Z,1.50
2022-12-22T05:36:40.061Z,1.30
2022-12-22T05:39:07.564Z,1.40
2022-12-22T05:41:35.269Z,1.90
2022-12-22T05:44:02.663Z,1.87
2022-12-22T05:46:30.193Z,1.60
2022-12-22T05:48:59.009Z,1.53
2022-12-22T05:51:26.435Z,1.63
2022-12-22T05:53:53.892Z,1.80
2022-12-22T05:56:21.407Z,1.20
2022-12-22T05:58:48.915Z,1.60
2022-12-22T06:01:16.321Z,1.47
2022-12-22T06:03:43.851Z,1.70
2022-12-22T06:06:12.677Z,1.77
2022-12-22T06:08:40.068Z,1.30
2022-12-22T06:11:07.651Z,1.57
2022-12-22T06:13:35.127Z,1.43
2022-12-22T06:16:02.656Z,1.80
2022-12-22T06:18:30.296Z,1.47
2022-12-22T06:20:57.875Z,1.70
2022-12-22T06:23:26.668Z,1.67
2022-12-22T06:25:55.050Z,1.47
2022-12-22T06:28:23.140Z,1.40
2022-12-22T06:30:50.708Z,1.50
2022-12-22T06:33:18.481Z,1.53
2022-12-22T06:35:46.140Z,1.70
2022-12-22T06:38:13.896Z,2.10
2022-12-22T06:40:42.747Z,1.90
2022-12-22T06:43:10.113Z,2.27
2022-12-22T06:45:39.221Z,2.20
2022-12-22T06:48:07.278Z,2.23
2022-12-22T06:50:35.260Z,3.17
2022-12-22T06:53:03.040Z,2.40
2022-12-22T06:55:30.599Z,2.70
2022-12-22T06:57:59.414Z,3.67
2022-12-22T07:00:27.080Z,3.37
2022-12-22T07:02:54.788Z,2.87
2022-12-22T07:05:23.825Z,3.60
2022-12-22T07:07:51.538Z,4.43
2022-12-22T07:10:19.041Z,4.53
2022-12-22T07:12:46.625Z,5.27
2022-12-22T07:15:15.580Z,4.90
2022-12-22T07:17:42.992Z,6.30
2022-12-22T07:20:10.996Z,6.60
2022-12-22T07:22:38.753Z,7.03
2022-12-22T07:25:06.539Z,6.93
2022-12-22T07:27:34.127Z,7.37
2022-12-22T07:30:01.628Z,8.23
2022-12-22T07:32:30.495Z,8.97
2022-12-22T07:35:03.206Z,9.50
2022-12-22T07:37:33.006Z,9.83
2022-12-22T07:40:00.509Z,9.43
2022-12-22T07:42:50.660Z,8.67
2022-12-22T07:45:19.525Z,8.83
2022-12-22T07:47:49.260Z,8.83
2022-12-22T07:50:27.619Z,9.63
2022-12-22T07:52:55.800Z,8.47
2022-12-22T07:55:23.618Z,10.07
2022-12-22T07:57:51.206Z,10.80
2022-12-22T08:00:19.505Z,11.60
2022-12-22T08:02:51.145Z,10.47
2022-12-22T08:05:19.228Z,10.97
2022-12-22T08:07:46.789Z,11.10
2022-12-22T08:10:14.319Z,11.27
2022-12-22T08:12:41.803Z,10.40
2022-12-22T08:15:10.125Z,11.20
2022-12-22T08:17:37.787Z,10.00
2022-12-22T08:20:07.575Z,9.73
2022-12-22T08:22:34.987Z,10.03
2022-12-22T08:25:02.484Z,9.40
2022-12-22T08:27:33.171Z,9.10
2022-12-22T08:30:02.197Z,10.57
2022-12-22T08:32:29.764Z,9.93
2022-12-22T08:34:57.318Z,8.83
2022-12-22T08:37:27.920Z,10.07
2022-12-22T08:39:57.220Z,9.33
2022-12-22T08:42:26.285Z,9.33
2022-12-22T08:44:54.189Z,9.80
2022-12-22T08:47:21.782Z,10.27
2022-12-22T08:49:49.596Z,9.10
2022-12-22T08:52:18.646Z,9.93
2022-12-22T08:54:48.268Z,9.73
2022-12-22T08:57:15.838Z,9.57
2022-12-22T08:59:43.259Z,9.43
2022-12-22T09:02:10.850Z,9.10
2022-12-22T09:04:38.371Z,9.33
2022-12-22T09:07:05.934Z,10.00
2022-12-22T09:09:34.198Z,9.10
2022-12-22T09:12:04.074Z,10.40
2022-12-22T09:14:32.393Z,11.67
2022-12-22T09:17:00.053Z,11.90
2022-12-22T09:19:27.512Z,11.17
2022-12-22T09:21:55.988Z,12.70
2022-12-22T09:24:23.504Z,12.93
2022-12-22T09:26:50.952Z,13.67
2022-12-22T09:29:19.917Z,13.63
2022-12-22T09:31:47.413Z,14.30
2022-12-22T09:34:18.109Z,15.70
2022-12-22T09:36:46.631Z,15.87
2022-12-22T09:39:14.584Z,16.10
2022-12-22T09:41:44.193Z,18.37
2022-12-22T09:44:14.953Z,17.77
2022-12-22T09:46:44.079Z,17.73
2022-12-22T09:49:13.459Z,17.93
2022-12-22T09:51:42.645Z,18.20
2022-12-22T09:54:11.787Z,18.93
2022-12-22T09:56:39.485Z,20.00
2022-12-22T09:59:10.407Z,18.10
2022-12-22T10:01:41.082Z,17.67
2022-12-22T10:04:15.190Z,18.87
2022-12-22T10:06:44.734Z,18.50
2022-12-22T10:09:46.147Z,19.97
2022-12-22T10:12:05.963Z,18.03
2022-12-22T10:14:35.422Z,17.97
2022-12-22T10:17:21.073Z,18.70
2022-12-22T10:19:50.617Z,18.27
2022-12-22T10:22:21.387Z,20.47
2022-12-22T10:24:49.108Z,20.10
2022-12-22T10:27:16.777Z,18.37
2022-12-22T10:29:45.965Z,19.17
2022-12-22T10:32:14.827Z,18.03
2022-12-22T10:34:58.954Z,18.27
2022-12-22T10:37:33.012Z,19.57
2022-12-22T10:40:00.509Z,20.30
2022-12-22T10:42:27.945Z,19.10
2022-12-22T10:44:55.473Z,19.10
2022-12-22T10:47:24.744Z,21.50
2022-12-22T10:52:29.247Z,20.27
2022-12-22T10:55:15.286Z,19.30
2022-12-22T10:57:42.741Z,19.63
2022-12-22T11:00:24.562Z,16.70
2022-12-22T11:02:52.915Z,14.90
2022-12-22T11:05:20.792Z,14.20
2022-12-22T11:07:48.817Z,13.80
2022-12-22T11:10:23.659Z,14.47
2022-12-22T11:13:02.437Z,13.90
2022-12-22T11:15:32.316Z,13.87
2022-12-22T11:18:02.511Z,13.97
2022-12-22T11:20:34.838Z,14.23
2022-12-22T11:23:04.040Z,13.50
2022-12-22T11:25:37.690Z,13.40
2022-12-22T11:28:18.209Z,13.43
2022-12-22T11:30:51.966Z,13.93
2022-12-22T11:33:29.249Z,14.30
2022-12-22T11:35:59.545Z,13.00
2022-12-22T11:38:31.995Z,12.57
2022-12-22T11:41:05.338Z,12.40
2022-12-22T11:43:39.672Z,13.13
2022-12-22T11:46:15.367Z,12.20
2022-12-22T11:49:00.927Z,12.13
2022-12-22T11:51:36.284Z,11.70
2022-12-22T11:54:13.053Z,11.77
2022-12-22T11:56:42.349Z,10.80
2022-12-22T11:59:19.130Z,9.83
2022-12-22T12:01:57.298Z,9.97
2022-12-22T12:04:33.113Z,9.90
2022-12-22T12:07:04.972Z,9.17
2022-12-22T12:09:36.394Z,9.73
2022-12-22T12:12:11.205Z,8.87
2022-12-22T12:14:40.291Z,8.60
2022-12-22T12:17:15.927Z,8.20
2022-12-22T12:19:59.352Z,9.50
2022-12-22T12:22:33.474Z,9.20
2022-12-22T12:25:02.655Z,8.63
2022-12-22T12:27:39.185Z,8.80
2022-12-22T12:33:01.914Z,8.40
2022-12-22T12:35:36.660Z,9.10
2022-12-22T12:38:07.076Z,9.10
2022-12-22T12:40:40.786Z,8.97
2022-12-22T12:43:16.219Z,8.33
2022-12-22T12:45:45.172Z,7.23
2022-12-22T12:48:36.760Z,7.00
2022-12-22T12:51:24.266Z,6.97
2022-12-22T12:54:06.627Z,6.63
2022-12-22T12:56:48.924Z,7.10
2022-12-22T12:59:44.860Z,6.60
2022-12-22T13:02:27.569Z,6.57
2022-12-22T13:05:12.362Z,7.10
2022-12-22T13:08:09.803Z,6.47
2022-12-22T13:10:38.572Z,6.37
2022-12-22T13:13:06.153Z,5.33
2022-12-22T13:15:36.436Z,5.90
2022-12-22T13:18:05.798Z,6.07
2022-12-22T13:20:34.757Z,5.10
2022-12-22T13:23:03.663Z,5.90
2022-12-22T13:25:40.467Z,5.73
2022-12-22T13:28:11.550Z,6.33
2022-12-22T13:30:40.560Z,5.83
2022-12-22T13:33:12.217Z,6.30
2022-12-22T13:35:47.581Z,5.93
2022-12-22T13:38:30.228Z,6.47
2022-12-22T13:40:57.985Z,5.90
2022-12-22T13:43:27.538Z,5.57
2022-12-22T13:45:57.162Z,5.53
2022-12-22T13:48:26.592Z,4.87
2022-12-22T13:50:54.539Z,4.83
2022-12-22T13:54:07.166Z,5.13
2022-12-22T13:56:14.952Z,5.00
2022-12-22T13:58:44.990Z,4.80
2022-12-22T14:01:18.024Z,5.27
2022-12-22T14:04:02.272Z,4.77
2022-12-22T14:06:31.260Z,4.50
2022-12-22T14:09:11.773Z,5.10
2022-12-22T14:11:42.792Z,5.10
2022-12-22T14:14:17.283Z,4.23
2022-12-22T14:16:47.694Z,4.60
2022-12-22T14:19:15.648Z,4.43
2022-12-22T14:21:44.198Z,4.40
2022-12-22T14:24:13.374Z,4.93
2022-12-22T14:26:40.851Z,4.40
2022-12-22T14:29:12.273Z,5.43
2022-12-22T14:31:52.801Z,5.70
2022-12-22T14:34:25.384Z,5.27
2022-12-22T14:36:54.459Z,5.47
2022-12-22T14:39:22.903Z,5.40
2022-12-22T14:41:51.945Z,5.53
2022-12-22T14:44:21.105Z,5.90
2022-12-22T14:47:01.367Z,5.20
2022-12-22T14:49:30.178Z,5.40
2022-12-22T14:52:01.373Z,5.53
2022-12-22T14:54:29.111Z,5.27
2022-12-22T14:57:00.792Z,5.60
2022-12-22T14:59:29.072Z,4.80
2022-12-22T15:02:00.731Z,4.77
2022-12-22T15:04:30.361Z,4.87
2022-12-22T15:07:15.063Z,4.50
2022-12-22T15:10:15.014Z,4.20
2022-12-22T15:12:43.427Z,5.10
2022-12-22T15:15:15.200Z,4.67
2022-12-22T15:17:44.592Z,5.57
2022-12-22T15:20:16.609Z,5.00
2022-12-22T15:22:44.130Z,5.60
2022-12-22T15:25:15.251Z,5.60
2022-12-22T15:27:42.681Z,6.50
2022-12-22T15:30:11.252Z,7.70
2022-12-22T15:32:38.770Z,7.40
2022-12-22T15:35:12.480Z,8.00
2022-12-22T15:37:41.280Z,9.10
2022-12-22T15:40:13.657Z,9.10
2022-12-22T15:42:41.112Z,9.20
2022-12-22T15:45:08.920Z,10.37
2022-12-22T15:47:36.326Z,9.30
2022-12-22T15:50:03.777Z,8.83
2022-12-22T15:52:32.620Z,9.80
2022-12-22T15:55:01.548Z,7.90
2022-12-22T15:57:29.252Z,9.60
2022-12-22T15:59:56.702Z,10.23
2022-12-22T16:02:24.349Z,9.53
2022-12-22T16:04:51.811Z,9.97
2022-12-22T16:07:19.265Z,9.13
2022-12-22T16:09:48.376Z,9.30
2022-12-22T16:12:18.525Z,8.73
2022-12-22T16:14:50.553Z,10.10
2022-12-22T16:17:19.299Z,10.00
2022-12-22T16:19:46.766Z,9.70
2022-12-22T16:22:14.808Z,8.90
2022-12-22T16:24:43.887Z,8.90
2022-12-22T16:27:12.503Z,9.33
2022-12-22T16:29:41.600Z,9.47
2022-12-22T16:32:19.091Z,8.37
2022-12-22T16:34:46.555Z,7.93
2022-12-22T16:37:14.034Z,8.03
2022-12-22T16:39:41.481Z,7.47
2022-12-22T16:44:56.016Z,7.03
2022-12-22T16:47:26.280Z,8.10
2022-12-22T16:49:54.092Z,7.13
2022-12-22T16:52:23.391Z,7.00
2022-12-22T16:54:52.916Z,7.10
2022-12-22T16:57:20.571Z,7.13
2022-12-22T16:59:48.018Z,6.80
2022-12-22T17:02:21.223Z,6.80
2022-12-22T17:04:49.030Z,6.60
2022-12-22T17:07:16.501Z,5.80
2022-12-22T17:09:46.188Z,5.90
2022-12-22T17:12:17.731Z,4.50
2022-12-22T17:14:45.604Z,4.00
2022-12-22T17:17:15.694Z,3.90
2022-12-22T17:19:44.639Z,3.90
2022-12-22T17:22:20.753Z,3.70
2022-12-22T17:24:48.515Z,3.77
2022-12-22T17:27:16.672Z,4.40
2022-12-22T17:29:44.167Z,3.90
2022-12-22T17:32:13.361Z,3.30
2022-12-22T17:34:40.825Z,3.50
2022-12-22T17:37:13.827Z,5.87
2022-12-22T17:39:41.608Z,2.30
2022-12-22T17:42:17.012Z,2.30
2022-12-22T17:44:44.689Z,2.30
2022-12-22T17:47:13.789Z,2.30
2022-12-22T17:49:41.258Z,2.10
2022-12-22T17:52:15.671Z,2.23
2022-12-22T17:54:43.228Z,2.40
2022-12-22T17:57:14.336Z,3.00
2022-12-22T17:59:41.750Z,2.50
2022-12-22T18:02:12.912Z,2.50
2022-12-22T18:04:40.359Z,1.77
2022-12-22T18:07:07.798Z,2.10
2022-12-22T18:09:36.904Z,2.40
2022-12-22T18:12:04.613Z,2.20
2022-12-22T18:14:32.080Z,3.40
2022-12-22T18:16:59.567Z,3.30
2022-12-22T18:19:27.100Z,3.30
2022-12-22T18:21:54.580Z,2.30
2022-12-22T18:24:21.979Z,3.57
2022-12-22T18:26:50.743Z,3.20
2022-12-22T18:29:18.539Z,3.90
2022-12-22T18:31:46.315Z,4.03
2022-12-22T18:34:13.904Z,4.97
2022-12-22T18:36:44.381Z,4.73
2022-12-22T18:39:17.329Z,2.90
2022-12-22T18:41:45.492Z,2.50
2022-12-22T18:44:16.016Z,2.90
2022-12-22T18:46:43.699Z,2.53
2022-12-22T18:49:11.321Z,2.60
2022-12-22T18:51:38.787Z,2.70
2022-12-22T18:54:20.131Z,2.90
2022-12-22T18:56:49.168Z,2.90
2022-12-22T18:59:22.105Z,3.10
2022-12-22T19:01:49.845Z,2.20
2022-12-22T19:04:17.584Z,2.57
2022-12-22T19:06:45.071Z,2.70
2022-12-22T19:09:13.702Z,2.83
2022-12-22T19:11:41.607Z,2.77
2022-12-22T19:14:15.755Z,2.27
2022-12-22T19:16:44.660Z,2.50
2022-12-22T19:19:16.971Z,2.83
2022-12-22T19:21:44.433Z,3.30
2022-12-22T19:24:11.987Z,3.00
2022-12-22T19:26:40.352Z,2.70
2022-12-22T19:29:09.756Z,3.10
2022-12-22T19:31:38.382Z,3.07
2022-12-22T19:34:11.011Z,3.70
2022-12-22T19:36:38.635Z,3.87
2022-12-22T19:39:06.314Z,3.63
2022-12-22T19:41:42.480Z,3.23
2022-12-22T19:44:23.381Z,3.20
2022-12-22T19:46:51.265Z,3.43
2022-12-22T19:49:21.030Z,3.77
2022-12-22T19:51:48.808Z,3.20
2022-12-22T19:54:16.575Z,3.00
2022-12-22T19:56:46.200Z,2.90
2022-12-22T19:59:25.416Z,3.30
2022-12-22T20:01:54.866Z,3.13
2022-12-22T20:04:24.093Z,3.10
2022-12-22T20:06:51.684Z,3.40
2022-12-22T20:09:19.869Z,3.27
2022-12-22T20:11:47.453Z,3.10
2022-12-22T20:14:17.138Z,3.60
2022-12-22T20:16:45.186Z,3.17
2022-12-22T20:19:14.751Z,3.47
2022-12-22T20:21:43.811Z,3.60
2022-12-22T20:24:14.656Z,3.77
2022-12-22T20:26:42.335Z,3.97
2022-12-22T20:29:10.789Z,4.30
2022-12-22T20:31:38.323Z,4.73
2022-12-22T20:34:06.889Z,4.40
2022-12-22T20:36:34.477Z,4.20
2022-12-22T20:39:04.069Z,4.30
2022-12-22T20:41:31.766Z,3.63
2022-12-22T20:43:59.470Z,3.90
2022-12-22T20:46:28.410Z,4.00
2022-12-22T20:48:56.695Z,5.80
2022-12-22T20:51:25.077Z,4.50
2022-12-22T20:53:53.458Z,4.40
2022-12-22T20:56:23.922Z,4.77
2022-12-22T20:58:51.806Z,4.07
2022-12-22T21:01:19.567Z,3.70
2022-12-22T21:03:47.167Z,3.90
2022-12-22T21:06:24.914Z,4.23
2022-12-22T21:08:53.136Z,3.80
2022-12-22T21:11:22.111Z,4.20
2022-12-22T21:13:49.896Z,3.53
2022-12-22T21:16:18.549Z,3.60
2022-12-22T21:18:46.546Z,4.30
2022-12-22T21:21:14.748Z,4.33
2022-12-22T21:23:42.205Z,4.93
2022-12-22T21:26:17.190Z,4.27
2022-12-22T21:28:46.737Z,4.10
2022-12-22T21:31:14.267Z,4.23
2022-12-22T21:33:41.924Z,4.20
2022-12-22T21:36:16.318Z,4.30
2022-12-22T21:38:43.766Z,5.13
2022-12-22T21:41:11.565Z,4.40
2022-12-22T21:43:39.009Z,4.93
2022-12-22T21:46:07.817Z,5.63
2022-12-22T21:48:35.427Z,5.57
2022-12-22T21:51:02.899Z,5.30
2022-12-22T21:53:30.510Z,5.30
2022-12-22T21:55:57.900Z,4.73
2022-12-22T21:58:25.511Z,5.10
2022-12-22T22:00:52.998Z,5.13
2022-12-22T22:03:22.065Z,5.30
2022-12-22T22:05:49.556Z,4.50
2022-12-22T22:08:16.995Z,5.00
2022-12-22T22:10:44.817Z,4.70
2022-12-22T22:13:13.999Z,4.10
2022-12-22T22:15:41.673Z,3.97
2022-12-22T22:18:15.088Z,4.10
2022-12-22T22:20:43.968Z,4.00
2022-12-22T22:23:12.393Z,4.27
2022-12-22T22:25:39.918Z,4.23
2022-12-22T22:28:07.383Z,4.10
2022-12-22T22:30:34.873Z,4.40
2022-12-22T22:33:02.324Z,4.30
2022-12-22T22:35:29.773Z,4.10
2022-12-22T22:37:58.697Z,5.50
2022-12-22T22:40:26.148Z,4.63
2022-12-22T22:42:53.624Z,4.50
2022-12-22T22:45:23.795Z,4.90
2022-12-22T22:47:51.948Z,5.30
2022-12-22T22:50:20.144Z,5.80
2022-12-22T22:52:47.753Z,5.50
2022-12-22T22:55:16.773Z,4.83
2022-12-22T22:57:44.303Z,4.57
2022-12-22T23:00:13.511Z,4.93
2022-12-22T23:02:41.243Z,4.57
2022-12-22T23:05:09.546Z,5.20
2022-12-22T23:07:37.239Z,4.47
2022-12-22T23:10:05.408Z,4.30
2022-12-22T23:12:34.224Z,4.73
2022-12-22T23:15:02.858Z,4.67
2022-12-22T23:17:30.369Z,4.90
2022-12-22T23:19:57.867Z,4.83
2022-12-22T23:22:25.349Z,4.07
2022-12-22T23:24:53.063Z,4.53
2022-12-22T23:27:20.548Z,4.60
2022-12-22T23:29:49.355Z,4.90
2022-12-22T23:32:16.818Z,4.57
2022-12-22T23:34:44.269Z,4.50
2022-12-22T23:37:18.752Z,4.90
2022-12-22T23:39:46.969Z,5.60
2022-12-22T23:42:14.476Z,5.40
2022-12-22T23:44:41.856Z,5.40
2022-12-22T23:47:10.842Z,4.90
2022-12-22T23:49:38.308Z,6.37
2022-12-22T23:52:05.780Z,4.90
2022-12-22T23:54:33.207Z,5.57
2022-12-22T23:57:00.725Z,5.77
2022-12-22T23:59:28.794Z,6.83
